Time;durP1;ratioP1;P1;durP2;ratioP2;P2;SDS_P1;SDS_P2;PMS_P1;PMS_P2;Temp;Humidity;BMP_temperature;BMP_pressure;BME280_temperature;BME280_humidity;BME280_pressure;Samples;Min_cycle;Max_cycle;Signal;HPM_P1;HPM_P2
2023/11/03 00:01:49;;;;;;;;;;;;;;;;;;5031065;28;20495;-64
2023/11/03 00:04:16;;;;;;;;;;;;;;;;;;5052164;28;20449;-64
2023/11/03 00:06:43;;;;;;;;;;;;;;;;;;5042056;28;19967;-64
2023/11/03 00:09:09;;;;;;;;;;;;;;;;;;5053929;28;19921;-64
2023/11/03 00:11:35;;;;;;;;;;;;;;;;;;5057814;28;19925;-64
2023/11/03 00:14:03;;;;;;;;;;;;;;;;;;5074415;28;19920;-64
2023/11/03 00:16:29;;;;;;;;;;;;;;;;;;5033861;28;19986;-64
2023/11/03 00:18:59;;;;;;;;;;;;;;;;;;5064660;28;20365;-64
2023/11/03 00:21:26;;;;;;;;;;;;;;;;;;5055481;28;20386;-64
2023/11/03 00:23:52;;;;;;;;;;;;;;;;;;5059753;28;19929;-64
2023/11/03 00:26:18;;;;;;;;;;;;;;;;;;5060251;28;19927;-64
2023/11/03 00:28:44;;;;;;;;;;;;;;;;;;5055073;28;20370;-63
2023/11/03 00:31:11;;;;;;;;;;;;;;;;;;5047970;28;22134;-64
2023/11/03 00:33:37;;;;;;;;;;;;;;;;;;5057023;28;19927;-63
2023/11/03 00:36:03;;;;;;;;;;;;;;;;;;5043264;28;19928;-63
2023/11/03 00:38:29;;;;;;;;;;;;;;;;;;5064072;28;20401;-63
2023/11/03 00:40:55;;;;;;;;;;;;;;;;;;5047566;28;19928;-63
2023/11/03 00:43:21;;;;;;;;;;;;;;;;;;5038290;28;19975;-63
2023/11/03 00:45:47;;;;;;;;;;;;;;;;;;5042059;28;20378;-63
2023/11/03 00:48:13;;;;;;;;;;;;;;;;;;5030106;28;19928;-63
2023/11/03 00:50:39;;;;;;;;;;;;;;;;;;5020796;28;19921;-63
2023/11/03 00:53:05;;;;;;;;;;;;;;;;;;5009113;28;20412;-64
2023/11/03 00:55:31;;;;;;;;;;;;;;;;;;5025963;28;20027;-64
2023/11/03 00:57:57;;;;;;;;;;;;;;;;;;5044277;28;20012;-64
2023/11/03 01:00:25;;;;;;;;;;;;;;;;;;5039520;28;19941;-64
2023/11/03 01:02:51;;;;;;;;;;;;;;;;;;5039712;28;19927;-64
2023/11/03 01:05:21;;;;;;;;;;;;;;;;;;5028147;28;19925;-64
2023/11/03 01:07:47;;;;;;;;;;;;;;;;;;5029236;28;19975;-64
2023/11/03 01:10:16;;;;;;;;;;;;;;;;;;5041084;28;19979;-64
2023/11/03 01:12:42;;;;;;;;;;;;;;;;;;5028572;28;20008;-64
2023/11/03 01:15:08;;;;;;;;;;;;;;;;;;5026067;28;20338;-64
2023/11/03 01:17:35;;;;;;;;;;;;;;;;;;5036194;28;20362;-64
2023/11/03 01:20:01;;;;;;;;;;;;;;;;;;5023358;28;20539;-64
2023/11/03 01:22:27;;;;;;;;;;;;;;;;;;5029330;28;19976;-64
2023/11/03 01:24:52;;;;;;;;;;;;;;;;;;5037223;28;19960;-64
2023/11/03 01:27:20;;;;;;;;;;;;;;;;;;5043186;28;19921;-64
2023/11/03 01:29:46;;;;;;;;;;;;;;;;;;5028660;28;19921;-64
2023/11/03 01:32:13;;;;;;;;;;;;;;;;;;5028580;28;19947;-64
2023/11/03 01:34:39;;;;;;;;;;;;;;;;;;5036247;28;19960;-64
2023/11/03 01:37:05;;;;;;;;;;;;;;;;;;5037759;28;19956;-64
2023/11/03 01:39:31;;;;;;;;;;;;;;;;;;5040631;28;19936;-64
2023/11/03 01:41:58;;;;;;;;;;;;;;;;;;5045065;28;19972;-64
2023/11/03 01:44:24;;;;;;;;;;;;;;;;;;5053986;28;19928;-64
2023/11/03 01:46:50;;;;;;;;;;;;;;;;;;5048130;28;19925;-64
2023/11/03 01:49:17;;;;;;;;;;;;;;;;;;5053021;28;20364;-64
2023/11/03 01:51:43;;;;;;;;;;;;;;;;;;5033377;28;19928;-64
2023/11/03 01:54:10;;;;;;;;;;;;;;;;;;5055218;28;19989;-64
2023/11/03 01:56:36;;;;;;;;;;;;;;;;;;5049326;28;19921;-64
2023/11/03 01:59:02;;;;;;;;;;;;;;;;;;5043716;28;19979;-64
2023/11/03 02:01:28;;;;;;;;;;;;;;;;;;5047435;28;19994;-64
2023/11/03 02:03:54;;;;;;;;;;;;;;;;;;5054455;28;20322;-64
2023/11/03 02:06:20;;;;;;;;;;;;;;;;;;5052763;28;19924;-64
2023/11/03 02:08:46;;;;;;;;;;;;;;;;;;5053240;28;20028;-64
2023/11/03 02:11:12;;;;;;;;;;;;;;;;;;5059004;28;20019;-64
2023/11/03 02:13:38;;;;;;;;;;;;;;;;;;5045537;28;19920;-65
2023/11/03 02:16:04;;;;;;;;;;;;;;;;;;5053218;28;20278;-64
2023/11/03 02:18:30;;;;;;;;;;;;;;;;;;5032648;28;19975;-64
2023/11/03 02:20:56;;;;;;;;;;;;;;;;;;5043955;28;19964;-65
2023/11/03 02:23:22;;;;;;;;;;;;;;;;;;5058740;28;19928;-65
2023/11/03 02:25:48;;;;;;;;;;;;;;;;;;5038894;28;19947;-65
2023/11/03 02:28:13;;;;;;;;;;;;;;;;;;5030720;28;20000;-63
2023/11/03 02:30:39;;;;;;;;;;;;;;;;;;5050322;28;19921;-64
2023/11/03 02:33:05;;;;;;;;;;;;;;;;;;5050091;28;19999;-64
2023/11/03 02:35:31;;;;;;;;;;;;;;;;;;5060490;28;19928;-64
2023/11/03 02:37:57;;;;;;;;;;;;;;;;;;5066488;28;19928;-64
2023/11/03 02:40:23;;;;;;;;;;;;;;;;;;5055967;28;19929;-64
2023/11/03 02:42:49;;;;;;;;;;;;;;;;;;5059593;28;19928;-64
2023/11/03 02:45:15;;;;;;;;;;;;;;;;;;5048537;28;19971;-64
2023/11/03 02:47:41;;;;;;;;;;;;;;;;;;5056565;28;19929;-64
2023/11/03 02:50:07;;;;;;;;;;;;;;;;;;5035892;28;20376;-64
2023/11/03 02:52:33;;;;;;;;;;;;;;;;;;5045289;28;19933;-64
2023/11/03 02:54:59;;;;;;;;;;;;;;;;;;5055593;28;20076;-64
2023/11/03 02:57:24;;;;;;;;;;;;;;;;;;5058677;28;19920;-64
2023/11/03 02:59:50;;;;;;;;;;;;;;;;;;5048730;28;19979;-64
2023/11/03 03:02:16;;;;;;;;;;;;;;;;;;5051249;28;20481;-64
2023/11/03 03:04:42;;;;;;;;;;;;;;;;;;5049593;28;19929;-64
2023/11/03 03:07:08;;;;;;;;;;;;;;;;;;5051115;28;19921;-64
2023/11/03 03:09:34;;;;;;;;;;;;;;;;;;5048488;28;19921;-63
2023/11/03 03:12:00;;;;;;;;;;;;;;;;;;5059713;28;19925;-64
2023/11/03 03:14:26;;;;;;;;;;;;;;;;;;5045759;28;19978;-64
2023/11/03 03:16:52;;;;;;;;;;;;;;;;;;5057828;28;19935;-63
2023/11/03 03:19:18;;;;;;;;;;;;;;;;;;5053959;28;20415;-63
2023/11/03 03:21:44;;;;;;;;;;;;;;;;;;5056272;28;19925;-64
2023/11/03 03:24:10;;;;;;;;;;;;;;;;;;5049689;28;19973;-64
2023/11/03 03:26:36;;;;;;;;;;;;;;;;;;5051150;28;20591;-64
2023/11/03 03:29:02;;;;;;;;;;;;;;;;;;5031507;28;19959;-64
2023/11/03 03:31:28;;;;;;;;;;;;;;;;;;5053779;28;19924;-64
2023/11/03 03:33:54;;;;;;;;;;;;;;;;;;5059370;28;19944;-64
2023/11/03 03:36:20;;;;;;;;;;;;;;;;;;5052984;28;19932;-64
2023/11/03 03:38:46;;;;;;;;;;;;;;;;;;5053555;28;19925;-64
2023/11/03 03:41:12;;;;;;;;;;;;;;;;;;5038709;28;19929;-64
2023/11/03 03:43:38;;;;;;;;;;;;;;;;;;5043378;28;19925;-64
2023/11/03 03:46:04;;;;;;;;;;;;;;;;;;5006560;28;20428;-64
2023/11/03 03:48:30;;;;;;;;;;;;;;;;;;5037259;28;19925;-64
2023/11/03 03:50:56;;;;;;;;;;;;;;;;;;5016730;28;19921;-64
2023/11/03 03:53:22;;;;;;;;;;;;;;;;;;5036682;28;19932;-64
2023/11/03 03:55:48;;;;;;;;;;;;;;;;;;5035406;28;19932;-64
2023/11/03 03:58:14;;;;;;;;;;;;;;;;;;5041169;28;19925;-64
2023/11/03 04:00:40;;;;;;;;;;;;;;;;;;5031150;28;20016;-64
2023/11/03 04:03:05;;;;;;;;;;;;;;;;;;5034226;28;19928;-64
2023/11/03 04:05:31;;;;;;;;;;;;;;;;;;5035477;28;19936;-64
2023/11/03 04:07:57;;;;;;;;;;;;;;;;;;5034239;28;20405;-64
2023/11/03 04:10:23;;;;;;;;;;;;;;;;;;5033693;28;19928;-64
2023/11/03 04:12:49;;;;;;;;;;;;;;;;;;5036890;28;19921;-64
2023/11/03 04:15:15;;;;;;;;;;;;;;;;;;5035872;28;19928;-64
2023/11/03 04:17:41;;;;;;;;;;;;;;;;;;5027686;28;19925;-64
2023/11/03 04:20:08;;;;;;;;;;;;;;;;;;5037089;28;19986;-64
2023/11/03 04:22:34;;;;;;;;;;;;;;;;;;5000288;28;20036;-64
2023/11/03 04:25:00;;;;;;;;;;;;;;;;;;5008143;28;20016;-64
2023/11/03 04:27:26;;;;;;;;;;;;;;;;;;5049645;28;19953;-64
2023/11/03 04:29:51;;;;;;;;;;;;;;;;;;5036219;28;19924;-64
2023/11/03 04:32:17;;;;;;;;;;;;;;;;;;5027087;28;19940;-64
2023/11/03 04:34:43;;;;;;;;;;;;;;;;;;5033962;28;19925;-64
2023/11/03 04:37:10;;;;;;;;;;;;;;;;;;5036392;28;20011;-64
2023/11/03 04:39:36;;;;;;;;;;;;;;;;;;5042263;28;20469;-64
2023/11/03 04:42:02;;;;;;;;;;;;;;;;;;5061311;28;19951;-65
2023/11/03 04:44:28;;;;;;;;;;;;;;;;;;5057053;28;19921;-64
2023/11/03 04:46:54;;;;;;;;;;;;;;;;;;5028060;28;19920;-64
2023/11/03 04:49:19;;;;;;;;;;;;;;;;;;5054978;28;20503;-64
2023/11/03 04:51:45;;;;;;;;;;;;;;;;;;5032674;28;20920;-64
2023/11/03 04:54:11;;;;;;;;;;;;;;;;;;5054876;28;19929;-65
2023/11/03 04:56:37;;;;;;;;;;;;;;;;;;5055992;28;19928;-64
2023/11/03 04:59:05;;;;;;;;;;;;;;;;;;5051274;28;20011;-64
2023/11/03 05:01:33;;;;;;;;;;;;;;;;;;5032177;28;19967;-65
2023/11/03 05:03:59;;;;;;;;;;;;;;;;;;5055277;28;19921;-65
2023/11/03 05:06:25;;;;;;;;;;;;;;;;;;5038109;28;20330;-65
2023/11/03 05:08:51;;;;;;;;;;;;;;;;;;5050789;28;19921;-65
2023/11/03 05:11:17;;;;;;;;;;;;;;;;;;5052979;28;19920;-65
2023/11/03 05:13:44;;;;;;;;;;;;;;;;;;5056109;28;19921;-65
2023/11/03 05:16:10;;;;;;;;;;;;;;;;;;5057279;28;19965;-65
2023/11/03 05:18:38;;;;;;;;;;;;;;;;;;5054721;28;19928;-65
2023/11/03 05:21:04;;;;;;;;;;;;;;;;;;5049675;28;19924;-64
2023/11/03 05:23:30;;;;;;;;;;;;;;;;;;5055712;28;20059;-64
2023/11/03 05:25:56;;;;;;;;;;;;;;;;;;5048488;28;19928;-64
2023/11/03 05:28:22;;;;;;;;;;;;;;;;;;5048841;28;19932;-65
2023/11/03 05:30:48;;;;;;;;;;;;;;;;;;5058337;28;19969;-63
2023/11/03 05:33:17;;;;;;;;;;;;;;;;;;5046197;28;20282;-63
2023/11/03 05:35:43;;;;;;;;;;;;;;;;;;5056852;28;19974;-63
2023/11/03 05:38:10;;;;;;;;;;;;;;;;;;5058685;28;19932;-63
2023/11/03 05:40:36;;;;;;;;;;;;;;;;;;5051685;28;19999;-63
2023/11/03 05:43:01;;;;;;;;;;;;;;;;;;5057010;28;19968;-63
2023/11/03 05:45:27;;;;;;;;;;;;;;;;;;5037467;28;20293;-63
2023/11/03 05:47:54;;;;;;;;;;;;;;;;;;5047171;28;19925;-64
2023/11/03 05:50:20;;;;;;;;;;;;;;;;;;5050052;28;19968;-63
2023/11/03 05:52:46;;;;;;;;;;;;;;;;;;5057557;28;19951;-63
2023/11/03 05:55:12;;;;;;;;;;;;;;;;;;5056632;28;20000;-63
2023/11/03 05:57:38;;;;;;;;;;;;;;;;;;5044611;28;19924;-63
2023/11/03 06:00:08;;;;;;;;;;;;;;;;;;5050358;28;19928;-63
2023/11/03 06:02:36;;;;;;;;;;;;;;;;;;5050740;28;19931;-63
2023/11/03 06:05:03;;;;;;;;;;;;;;;;;;5049747;28;19943;-63
2023/11/03 06:07:29;;;;;;;;;;;;;;;;;;5052539;28;20256;-63
2023/11/03 06:09:56;;;;;;;;;;;;;;;;;;5061110;28;19925;-63
2023/11/03 06:12:21;;;;;;;;;;;;;;;;;;5046493;28;20026;-64
2023/11/03 06:14:47;;;;;;;;;;;;;;;;;;5033168;28;19967;-64
2023/11/03 06:17:13;;;;;;;;;;;;;;;;;;5048452;28;19928;-64
2023/11/03 06:19:39;;;;;;;;;;;;;;;;;;5050504;28;19929;-64
2023/11/03 06:22:05;;;;;;;;;;;;;;;;;;5053535;28;19920;-64
2023/11/03 06:24:31;;;;;;;;;;;;;;;;;;5067766;28;19959;-64
2023/11/03 06:26:59;;;;;;;;;;;;;;;;;;5065048;28;20047;-63
2023/11/03 06:29:25;;;;;;;;;;;;;;;;;;5050333;28;20314;-64
2023/11/03 06:31:51;;;;;;;;;;;;;;;;;;5051041;28;19925;-64
2023/11/03 06:34:16;;;;;;;;;;;;;;;;;;5044214;28;19920;-64
2023/11/03 06:36:42;;;;;;;;;;;;;;;;;;5039125;28;20429;-63
2023/11/03 06:39:08;;;;;;;;;;;;;;;;;;5062509;28;19952;-62
2023/11/03 06:41:34;;;;;;;;;;;;;;;;;;5062225;28;20015;-63
2023/11/03 06:44:01;;;;;;;;;;;;;;;;;;5062064;28;19971;-63
2023/11/03 06:46:27;;;;;;;;;;;;;;;;;;5051652;28;20578;-63
2023/11/03 06:48:53;;;;;;;;;;;;;;;;;;5063719;28;19924;-63
2023/11/03 06:51:19;;;;;;;;;;;;;;;;;;5053049;28;20270;-63
2023/11/03 06:53:45;;;;;;;;;;;;;;;;;;5038476;28;19920;-63
2023/11/03 06:56:11;;;;;;;;;;;;;;;;;;5058130;28;19920;-63
2023/11/03 06:58:37;;;;;;;;;;;;;;;;;;5062141;28;19931;-63
2023/11/03 07:01:04;;;;;;;;;;;;;;;;;;5051794;28;20385;-63
2023/11/03 07:03:31;;;;;;;;;;;;;;;;;;5054147;28;19928;-63
2023/11/03 07:05:57;;;;;;;;;;;;;;;;;;5057787;28;19971;-63
2023/11/03 07:08:23;;;;;;;;;;;;;;;;;;5066029;28;19925;-63
2023/11/03 07:10:50;;;;;;;;;;;;;;;;;;5048650;28;20347;-63
2023/11/03 07:13:16;;;;;;;;;;;;;;;;;;5049977;28;19924;-64
2023/11/03 07:15:43;;;;;;;;;;;;;;;;;;5051405;28;20416;-64
2023/11/03 07:18:09;;;;;;;;;;;;;;;;;;5047562;28;19952;-64
2023/11/03 07:20:35;;;;;;;;;;;;;;;;;;5052078;28;20370;-64
2023/11/03 07:23:01;;;;;;;;;;;;;;;;;;5069984;28;19932;-64
2023/11/03 07:25:27;;;;;;;;;;;;;;;;;;5054547;28;19921;-64
2023/11/03 07:27:53;;;;;;;;;;;;;;;;;;5054973;28;19947;-64
2023/11/03 07:30:19;;;;;;;;;;;;;;;;;;5055326;28;19986;-64
2023/11/03 07:32:46;;;;;;;;;;;;;;;;;;5053223;28;19921;-64
2023/11/03 07:35:13;;;;;;;;;;;;;;;;;;5046880;28;19929;-64
2023/11/03 07:37:39;;;;;;;;;;;;;;;;;;5059673;28;19954;-63
2023/11/03 07:40:05;;;;;;;;;;;;;;;;;;5066889;28;20035;-64
2023/11/03 07:42:31;;;;;;;;;;;;;;;;;;5055168;28;20389;-64
2023/11/03 07:44:57;;;;;;;;;;;;;;;;;;5052198;28;20044;-64
2023/11/03 07:47:22;;;;;;;;;;;;;;;;;;5052864;28;19920;-64
2023/11/03 07:49:49;;;;;;;;;;;;;;;;;;5046693;28;20420;-64
2023/11/03 07:52:15;;;;;;;;;;;;;;;;;;5057026;28;20350;-64
2023/11/03 07:54:41;;;;;;;;;;;;;;;;;;5058334;28;19920;-64
2023/11/03 07:57:07;;;;;;;;;;;;;;;;;;5057104;28;19924;-64
2023/11/03 07:59:33;;;;;;;;;;;;;;;;;;5053672;28;19968;-64
2023/11/03 08:02:00;;;;;;;;;;;;;;;;;;5054487;28;19927;-64
2023/11/03 08:04:25;;;;;;;;;;;;;;;;;;5037029;28;19943;-65
2023/11/03 08:06:52;;;;;;;;;;;;;;;;;;5056696;28;19928;-64
2023/11/03 08:09:18;;;;;;;;;;;;;;;;;;5051595;28;19928;-64
2023/11/03 08:11:44;;;;;;;;;;;;;;;;;;5066043;28;19924;-64
2023/11/03 08:14:09;;;;;;;;;;;;;;;;;;5055728;28;19931;-64
2023/11/03 08:16:35;;;;;;;;;;;;;;;;;;5054973;28;19921;-64
2023/11/03 08:19:01;;;;;;;;;;;;;;;;;;5059740;28;19922;-64
2023/11/03 08:21:27;;;;;;;;;;;;;;;;;;5034384;28;20003;-64
2023/11/03 08:23:54;;;;;;;;;;;;;;;;;;5033091;28;19925;-70
2023/11/03 08:26:20;;;;;;;;;;;;;;;;;;5044030;28;19928;-64
2023/11/03 08:28:46;;;;;;;;;;;;;;;;;;5050650;28;19921;-64
2023/11/03 08:31:12;;;;;;;;;;;;;;;;;;5051496;28;19928;-64
2023/11/03 08:33:37;;;;;;;;;;;;;;;;;;5033365;28;19990;-64
2023/11/03 08:36:04;;;;;;;;;;;;;;;;;;5037677;28;19921;-64
2023/11/03 08:38:31;;;;;;;;;;;;;;;;;;5052716;28;19921;-65
2023/11/03 08:40:57;;;;;;;;;;;;;;;;;;5050620;28;19942;-65
2023/11/03 08:43:23;;;;;;;;;;;;;;;;;;5052376;28;19924;-62
2023/11/03 08:45:49;;;;;;;;;;;;;;;;;;5073401;28;19924;-64
2023/11/03 08:48:15;;;;;;;;;;;;;;;;;;5051287;28;19921;-63
2023/11/03 08:50:41;;;;;;;;;;;;;;;;;;5033219;28;19921;-64
2023/11/03 08:53:07;;;;;;;;;;;;;;;;;;5028031;28;19932;-64
2023/11/03 08:55:33;;;;;;;;;;;;;;;;;;5045645;28;21660;-64
2023/11/03 08:57:59;;;;;;;;;;;;;;;;;;5034776;28;19936;-64
2023/11/03 09:00:25;;;;;;;;;;;;;;;;;;5044304;28;19968;-63
2023/11/03 09:02:51;;;;;;;;;;;;;;;;;;5051213;28;20432;-64
2023/11/03 09:05:17;;;;;;;;;;;;;;;;;;5056071;28;19947;-64
2023/11/03 09:07:43;;;;;;;;;;;;;;;;;;5049756;28;20055;-64
2023/11/03 09:10:11;;;;;;;;;;;;;;;;;;5013184;28;20332;-64
2023/11/03 09:12:37;;;;;;;;;;;;;;;;;;5037263;28;19927;-64
2023/11/03 09:15:07;;;;;;;;;;;;;;;;;;5049102;28;19928;-63
2023/11/03 09:17:33;;;;;;;;;;;;;;;;;;5047689;28;20038;-63
2023/11/03 09:19:59;;;;;;;;;;;;;;;;;;5041042;28;20402;-64
2023/11/03 09:22:24;;;;;;;;;;;;;;;;;;5036135;28;19977;-64
2023/11/03 09:24:53;;;;;;;;;;;;;;;;;;5029111;28;19928;-63
2023/11/03 09:27:19;;;;;;;;;;;;;;;;;;5056674;28;20528;-64
2023/11/03 09:29:46;;;;;;;;;;;;;;;;;;5033754;28;19932;-64
2023/11/03 09:32:12;;;;;;;;;;;;;;;;;;5051733;28;19967;-63
2023/11/03 09:34:38;;;;;;;;;;;;;;;;;;5052818;28;19929;-64
2023/11/03 09:37:06;;;;;;;;;;;;;;;;;;5024921;28;19924;-64
2023/11/03 09:39:34;;;;;;;;;;;;;;;;;;5056762;28;19939;-63
2023/11/03 09:42:00;;;;;;;;;;;;;;;;;;5054991;28;19927;-64
2023/11/03 09:44:27;;;;;;;;;;;;;;;;;;5056923;28;19920;-64
2023/11/03 09:46:53;;;;;;;;;;;;;;;;;;5039487;28;19925;-62
2023/11/03 09:49:19;;;;;;;;;;;;;;;;;;5046954;28;19924;-63
2023/11/03 09:51:45;;;;;;;;;;;;;;;;;;5047563;28;20248;-63
2023/11/03 09:54:12;;;;;;;;;;;;;;;;;;5056439;22;20150;-59
2023/11/03 09:56:39;;;;;;;;;;;;;;;;;;5070864;28;19920;-59
2023/11/03 09:59:07;;;;;;;;;;;;;;;;;;5065887;28;20012;-59
2023/11/03 10:01:33;;;;;;;;;;;;;;;;;;5072898;28;20011;-59
2023/11/03 10:03:59;;;;;;;;;;;;;;;;;;5070240;28;20047;-59
2023/11/03 10:06:25;;;;;;;;;;;;;;;;;;5070955;28;19928;-59
2023/11/03 10:08:51;;;;;;;;;;;;;;;;;;5072175;28;19955;-59
2023/11/03 10:11:17;;;;;;;;;;;;;;;;;;5033907;28;19931;-59
2023/11/03 10:13:43;;;;;;;;;;;;;;;;;;5046905;28;19921;-59
2023/11/03 10:16:10;;;;;;;;;;;;;;;;;;5066114;28;19927;-59
2023/11/03 10:18:37;;;;;;;;;;;;;;;;;;5059698;28;20400;-59
2023/11/03 10:21:03;;;;;;;;;;;;;;;;;;5038744;28;19929;-59
2023/11/03 10:23:29;;;;;;;;;;;;;;;;;;5031493;28;19928;-59
2023/11/03 10:25:55;;;;;;;;;;;;;;;;;;5061484;28;19925;-59
2023/11/03 10:28:21;;;;;;;;;;;;;;;;;;5069231;28;20370;-59
2023/11/03 10:30:47;;;;;;;;;;;;;;;;;;5057426;28;19920;-59
2023/11/03 10:33:13;;;;;;;;;;;;;;;;;;5068304;28;19928;-62
2023/11/03 10:35:39;;;;;;;;;;;;;;;;;;5065576;28;20293;-58
2023/11/03 10:38:05;;;;;;;;;;;;;;;;;;5038427;28;19920;-59
2023/11/03 10:40:31;;;;;;;;;;;;;;;;;;5062952;28;19935;-59
2023/11/03 10:42:56;;;;;;;;;;;;;;;;;;5050063;28;20263;-59
2023/11/03 10:45:23;;;;;;;;;;;;;;;;;;5059096;28;19931;-59
2023/11/03 10:47:50;;;;;;;;;;;;;;;;;;5069360;28;20043;-59
2023/11/03 10:50:18;;;;;;;;;;;;;;;;;;5067322;28;20451;-59
2023/11/03 10:52:44;;;;;;;;;;;;;;;;;;5069097;28;19924;-59
2023/11/03 10:55:09;;;;;;;;;;;;;;;;;;5060752;28;19932;-59
2023/11/03 10:57:36;;;;;;;;;;;;;;;;;;5052189;28;19920;-59
2023/11/03 11:00:09;;;;;;;;;;;;;;;;;;5052476;28;20058;-59
2023/11/03 11:02:35;;;;;;;;;;;;;;;;;;5068991;28;19920;-59
2023/11/03 11:05:01;;;;;;;;;;;;;;;;;;5061975;28;19925;-59
2023/11/03 11:07:27;;;;;;;;;;;;;;;;;;5067088;28;19924;-59
2023/11/03 11:09:54;;;;;;;;;;;;;;;;;;5061171;28;19924;-59
2023/11/03 11:12:20;;;;;;;;;;;;;;;;;;5074889;28;19924;-59
2023/11/03 11:14:48;;;;;;;;;;;;;;;;;;5075762;28;19928;-59
2023/11/03 11:17:14;;;;;;;;;;;;;;;;;;5066715;28;19921;-59
2023/11/03 11:19:40;;;;;;;;;;;;;;;;;;5069576;28;19925;-60
2023/11/03 11:22:08;;;;;;;;;;;;;;;;;;5037833;28;19926;-60
2023/11/03 11:24:33;;;;;;;;;;;;;;;;;;5067382;28;19921;-60
2023/11/03 11:26:59;;;;;;;;;;;;;;;;;;5070918;28;19935;-60
2023/11/03 11:29:27;;;;;;;;;;;;;;;;;;5048482;28;19928;-60
2023/11/03 11:31:55;;;;;;;;;;;;;;;;;;5067400;28;19928;-60
2023/11/03 11:34:21;;;;;;;;;;;;;;;;;;5069359;28;19924;-60
2023/11/03 11:36:47;;;;;;;;;;;;;;;;;;5072771;28;20354;-60
2023/11/03 11:39:13;;;;;;;;;;;;;;;;;;5062941;28;19963;-60
2023/11/03 11:41:40;;;;;;;;;;;;;;;;;;5066058;28;19935;-60
2023/11/03 11:44:05;;;;;;;;;;;;;;;;;;5075760;28;19926;-60
2023/11/03 11:46:31;;;;;;;;;;;;;;;;;;5065458;28;19928;-60
2023/11/03 11:48:57;;;;;;;;;;;;;;;;;;5071764;28;19921;-60
2023/11/03 11:51:25;;;;;;;;;;;;;;;;;;5066059;28;19979;-60
2023/11/03 11:53:50;;;;;;;;;;;;;;;;;;5067531;28;19928;-60
2023/11/03 11:56:17;;;;;;;;;;;;;;;;;;5072695;28;19931;-61
2023/11/03 11:58:44;;;;;;;;;;;;;;;;;;5052725;28;19924;-60
2023/11/03 12:01:10;;;;;;;;;;;;;;;;;;5069197;28;19925;-60
2023/11/03 12:03:36;;;;;;;;;;;;;;;;;;5049449;28;19927;-60
2023/11/03 12:06:02;;;;;;;;;;;;;;;;;;5068564;28;20015;-60
2023/11/03 12:08:30;;;;;;;;;;;;;;;;;;5064491;28;20014;-60
2023/11/03 12:10:56;;;;;;;;;;;;;;;;;;5065658;28;19933;-60
2023/11/03 12:13:22;;;;;;;;;;;;;;;;;;5055034;28;20278;-60
2023/11/03 12:15:48;;;;;;;;;;;;;;;;;;5062994;28;19924;-60
2023/11/03 12:18:14;;;;;;;;;;;;;;;;;;5070456;28;19928;-60
2023/11/03 12:20:41;;;;;;;;;;;;;;;;;;5063543;28;20443;-61
2023/11/03 12:23:07;;;;;;;;;;;;;;;;;;5050457;28;19920;-60
2023/11/03 12:25:33;;;;;;;;;;;;;;;;;;5060374;28;19955;-60
2023/11/03 12:27:59;;;;;;;;;;;;;;;;;;5056090;28;19931;-60
2023/11/03 12:30:25;;;;;;;;;;;;;;;;;;5061088;28;19924;-60
2023/11/03 12:32:51;;;;;;;;;;;;;;;;;;5061876;28;20421;-60
2023/11/03 12:35:17;;;;;;;;;;;;;;;;;;5067303;28;19975;-60
2023/11/03 12:37:43;;;;;;;;;;;;;;;;;;5054015;28;19953;-59
2023/11/03 12:40:09;;;;;;;;;;;;;;;;;;5058662;28;19932;-60
2023/11/03 12:42:35;;;;;;;;;;;;;;;;;;5063231;28;19967;-60
2023/11/03 12:45:03;;;;;;;;;;;;;;;;;;5066590;28;20378;-60
2023/11/03 12:47:28;;;;;;;;;;;;;;;;;;5074287;28;19931;-60
2023/11/03 12:49:55;;;;;;;;;;;;;;;;;;5063385;28;20011;-60
2023/11/03 12:52:21;;;;;;;;;;;;;;;;;;5038286;28;19951;-59
2023/11/03 12:54:47;;;;;;;;;;;;;;;;;;5059147;28;19928;-59
2023/11/03 12:57:14;;;;;;;;;;;;;;;;;;5056940;28;19925;-59
2023/11/03 12:59:40;;;;;;;;;;;;;;;;;;5039224;28;19925;-59
2023/11/03 13:02:05;;;;;;;;;;;;;;;;;;5053874;28;20364;-59
2023/11/03 13:04:31;;;;;;;;;;;;;;;;;;5080477;28;20011;-59
2023/11/03 13:06:57;;;;;;;;;;;;;;;;;;5065213;28;19921;-59
2023/11/03 13:09:24;;;;;;;;;;;;;;;;;;5059341;28;19924;-59
2023/11/03 13:11:50;;;;;;;;;;;;;;;;;;5061872;28;20666;-59
2023/11/03 13:14:16;;;;;;;;;;;;;;;;;;5043856;28;20340;-59
2023/11/03 13:16:42;;;;;;;;;;;;;;;;;;5058915;28;19925;-62
2023/11/03 13:19:09;;;;;;;;;;;;;;;;;;5033865;28;19931;-59
2023/11/03 13:21:35;;;;;;;;;;;;;;;;;;5081817;28;20283;-59
2023/11/03 13:24:01;;;;;;;;;;;;;;;;;;5055555;28;20016;-59
2023/11/03 13:26:27;;;;;;;;;;;;;;;;;;5058181;28;20349;-59
2023/11/03 13:28:54;;;;;;;;;;;;;;;;;;5058835;28;20011;-59
2023/11/03 13:31:20;;;;;;;;;;;;;;;;;;5046182;28;19924;-59
2023/11/03 13:33:46;;;;;;;;;;;;;;;;;;5044751;28;19981;-59
2023/11/03 13:36:13;;;;;;;;;;;;;;;;;;5064030;28;19924;-59
2023/11/03 13:38:40;;;;;;;;;;;;;;;;;;5069865;28;19921;-59
2023/11/03 13:41:06;;;;;;;;;;;;;;;;;;5062285;28;20680;-59
2023/11/03 13:43:34;;;;;;;;;;;;;;;;;;5062322;28;20015;-59
2023/11/03 13:45:59;;;;;;;;;;;;;;;;;;5079911;28;19924;-64
2023/11/03 13:48:25;;;;;;;;;;;;;;;;;;5064532;28;19927;-62
2023/11/03 13:50:51;;;;;;;;;;;;;;;;;;5068817;28;19920;-59
2023/11/03 13:53:17;;;;;;;;;;;;;;;;;;5058414;28;19996;-61
2023/11/03 13:55:43;;;;;;;;;;;;;;;;;;5068886;28;19939;-60
2023/11/03 13:58:09;;;;;;;;;;;;;;;;;;5075881;28;20785;-59
2023/11/03 14:00:35;;;;;;;;;;;;;;;;;;5058900;28;19925;-59
2023/11/03 14:03:04;;;;;;;;;;;;;;;;;;5055378;28;20725;-59
2023/11/03 14:05:30;;;;;;;;;;;;;;;;;;5077057;28;20381;-59
2023/11/03 14:07:57;;;;;;;;;;;;;;;;;;5071177;28;20411;-59
2023/11/03 14:10:23;;;;;;;;;;;;;;;;;;5063339;28;19931;-59
2023/11/03 14:12:50;;;;;;;;;;;;;;;;;;5054791;28;20329;-59
2023/11/03 14:15:18;;;;;;;;;;;;;;;;;;5063832;28;20560;-59
2023/11/03 14:17:45;;;;;;;;;;;;;;;;;;5074636;28;20068;-59
2023/11/03 14:20:11;;;;;;;;;;;;;;;;;;5070994;28;19973;-59
2023/11/03 14:22:37;;;;;;;;;;;;;;;;;;5080619;28;19928;-59
2023/11/03 14:25:03;;;;;;;;;;;;;;;;;;5056651;28;20054;-59
2023/11/03 14:27:29;;;;;;;;;;;;;;;;;;5037290;28;19929;-59
2023/11/03 14:29:55;;;;;;;;;;;;;;;;;;5060412;28;19921;-59
2023/11/03 14:32:21;;;;;;;;;;;;;;;;;;5082778;28;19920;-59
2023/11/03 14:34:47;;;;;;;;;;;;;;;;;;5081019;28;19924;-59
2023/11/03 14:37:13;;;;;;;;;;;;;;;;;;5063585;28;19990;-59
2023/11/03 14:39:39;;;;;;;;;;;;;;;;;;5046464;28;20382;-59
2023/11/03 14:42:04;;;;;;;;;;;;;;;;;;5074669;28;19921;-59
2023/11/03 14:44:34;;;;;;;;;;;;;;;;;;5062282;28;20392;-59
2023/11/03 14:47:00;;;;;;;;;;;;;;;;;;5068037;28;19920;-59
2023/11/03 14:49:26;;;;;;;;;;;;;;;;;;5061219;28;19921;-59
2023/11/03 14:51:52;;;;;;;;;;;;;;;;;;5058747;28;20640;-59
2023/11/03 14:54:18;;;;;;;;;;;;;;;;;;5074310;28;20402;-59
2023/11/03 14:56:45;;;;;;;;;;;;;;;;;;5036760;28;19948;-59
2023/11/03 14:59:10;;;;;;;;;;;;;;;;;;5062196;28;19925;-59
2023/11/03 15:01:37;;;;;;;;;;;;;;;;;;5048119;28;19929;-59
2023/11/03 15:04:04;;;;;;;;;;;;;;;;;;5061728;28;19972;-59
2023/11/03 15:06:30;;;;;;;;;;;;;;;;;;5060356;28;19928;-59
2023/11/03 15:08:55;;;;;;;;;;;;;;;;;;5068158;28;19928;-59
2023/11/03 15:11:23;;;;;;;;;;;;;;;;;;5044040;28;20247;-59
2023/11/03 15:13:49;;;;;;;;;;;;;;;;;;5062135;28;19921;-59
2023/11/03 15:16:15;;;;;;;;;;;;;;;;;;5055794;28;19927;-59
2023/11/03 15:18:41;;;;;;;;;;;;;;;;;;5056154;28;20295;-59
2023/11/03 15:21:07;;;;;;;;;;;;;;;;;;5055464;28;19933;-59
2023/11/03 15:23:35;;;;;;;;;;;;;;;;;;5052180;28;19924;-60
2023/11/03 15:26:01;;;;;;;;;;;;;;;;;;5047677;28;20390;-60
2023/11/03 15:28:27;;;;;;;;;;;;;;;;;;5065846;28;19935;-60
2023/11/03 15:30:53;;;;;;;;;;;;;;;;;;5040673;28;19928;-60
2023/11/03 15:33:18;;;;;;;;;;;;;;;;;;5062690;28;22102;-60
2023/11/03 15:35:44;;;;;;;;;;;;;;;;;;5043492;28;19928;-60
2023/11/03 15:38:11;;;;;;;;;;;;;;;;;;5058375;28;20009;-60
2023/11/03 15:40:37;;;;;;;;;;;;;;;;;;5056141;28;19924;-60
2023/11/03 15:43:03;;;;;;;;;;;;;;;;;;5066387;28;19931;-61
2023/11/03 15:45:29;;;;;;;;;;;;;;;;;;5025338;28;19921;-61
2023/11/03 15:47:55;;;;;;;;;;;;;;;;;;5058833;28;20314;-61
2023/11/03 15:50:26;;;;;;;;;;;;;;;;;;5062945;28;19929;-61
2023/11/03 15:52:52;;;;;;;;;;;;;;;;;;5047658;28;20409;-60
2023/11/03 15:55:17;;;;;;;;;;;;;;;;;;5054389;28;19924;-61
2023/11/03 15:57:46;;;;;;;;;;;;;;;;;;5068183;28;20393;-60
2023/11/03 16:00:14;;;;;;;;;;;;;;;;;;5062092;28;19928;-60
2023/11/03 16:02:40;;;;;;;;;;;;;;;;;;5041124;28;25870;-61
2023/11/03 16:05:05;;;;;;;;;;;;;;;;;;5068157;28;19925;-61
2023/11/03 16:07:33;;;;;;;;;;;;;;;;;;5072391;28;19925;-60
2023/11/03 16:09:59;;;;;;;;;;;;;;;;;;5062127;28;19951;-60
2023/11/03 16:12:26;;;;;;;;;;;;;;;;;;5068805;28;19924;-60
2023/11/03 16:14:52;;;;;;;;;;;;;;;;;;5057325;28;20027;-59
2023/11/03 16:17:18;;;;;;;;;;;;;;;;;;5062445;28;20011;-59
2023/11/03 16:19:44;;;;;;;;;;;;;;;;;;5064005;28;20033;-59
2023/11/03 16:22:10;;;;;;;;;;;;;;;;;;5059019;28;19960;-59
2023/11/03 16:24:36;;;;;;;;;;;;;;;;;;5068292;28;20553;-59
2023/11/03 16:27:02;;;;;;;;;;;;;;;;;;5065948;28;19925;-59
2023/11/03 16:29:28;;;;;;;;;;;;;;;;;;5060184;28;19921;-59
2023/11/03 16:31:54;;;;;;;;;;;;;;;;;;5066359;28;19959;-59
2023/11/03 16:34:20;;;;;;;;;;;;;;;;;;5070502;28;19974;-59
2023/11/03 16:36:46;;;;;;;;;;;;;;;;;;5058818;28;19975;-59
2023/11/03 16:39:12;;;;;;;;;;;;;;;;;;5068803;28;19960;-59